Terminal Aerodrome Forecast
Issued by NWS Denver/Boulder, CO

Home | Current Version | Previous Version | Text Only | Print | Product List | Glossary On
Versions: 1 2 3 4 5 6 7 8 9 10 11 12 13 14 15 16 17 18 19 20 21 22 23 24 25 26 27 28 29 30 31 32 33 34 35 36 37 38 39 40 41 42 43 44 45 46 47 48 49 50
000
FTUS45 KBOU 281056 AAE
TAFDEN
TAF AMD
KDEN 281056Z 2811/2912 04005KT P6SM VCFG BKN020 OVC060
      TEMPO 2811/2814 2SM BR SCT004 BKN012
     FM281500 06006KT P6SM VCFG FEW040 SCT060
     FM281700 15007KT P6SM FEW060 SCT200
     FM282100 10008KT P6SM FEW080 SCT120
     FM290200 22009KT P6SM SCT200=

USA.gov is the U.S. government's official web portal to all federal, state and local government web resources and services.